createdAt,value
2019-01-24T00:02:24.594Z,46.07
2019-01-24T00:04:55.975Z,48.07
2019-01-24T00:07:28.311Z,48.83
2019-01-24T00:10:00.912Z,51.47
2019-01-24T00:12:32.006Z,45.23
2019-01-24T00:15:03.338Z,53.87
2019-01-24T00:17:34.314Z,49.17
2019-01-24T00:20:06.620Z,51.00
2019-01-24T00:22:38.491Z,45.27
2019-01-24T00:25:10.227Z,52.40
2019-01-24T00:27:41.342Z,52.53
2019-01-24T00:30:12.962Z,55.23
2019-01-24T00:32:44.090Z,55.60
2019-01-24T00:35:15.722Z,47.17
2019-01-24T00:37:47.347Z,53.63
2019-01-24T00:40:19.054Z,54.57
2019-01-24T00:42:50.106Z,49.30
2019-01-24T00:45:21.406Z,55.10
2019-01-24T00:47:53.758Z,51.27
2019-01-24T00:50:24.890Z,51.80
2019-01-24T00:52:56.011Z,53.73
2019-01-24T00:55:27.570Z,53.63
2019-01-24T00:57:59.118Z,52.13
2019-01-24T01:00:39.781Z,59.27
2019-01-24T01:03:12.843Z,65.43
2019-01-24T01:05:44.214Z,55.03
2019-01-24T01:08:15.601Z,55.03
2019-01-24T01:10:46.690Z,56.37
2019-01-24T01:13:17.898Z,51.37
2019-01-24T01:15:48.950Z,59.47
2019-01-24T01:18:20.237Z,59.47
2019-01-24T01:20:51.538Z,56.40
2019-01-24T01:23:22.821Z,56.27
2019-01-24T01:25:54.195Z,53.57
2019-01-24T01:28:25.575Z,56.30
2019-01-24T01:30:56.855Z,55.57
2019-01-24T01:33:27.826Z,66.83
2019-01-24T01:35:58.961Z,67.00
2019-01-24T01:38:30.077Z,63.10
2019-01-24T01:41:01.402Z,55.97
2019-01-24T01:43:34.068Z,60.17
2019-01-24T01:46:05.822Z,54.03
2019-01-24T01:48:37.039Z,55.03
2019-01-24T01:51:08.394Z,55.27
2019-01-24T01:53:39.634Z,65.43
2019-01-24T01:56:10.694Z,59.30
2019-01-24T01:58:42.734Z,59.77
2019-01-24T02:01:13.974Z,56.97
2019-01-24T02:03:45.014Z,63.70
2019-01-24T02:06:16.163Z,60.73
2019-01-24T02:08:47.459Z,61.43
2019-01-24T02:11:18.854Z,51.03
2019-01-24T02:13:50.889Z,55.13
2019-01-24T02:16:22.249Z,60.90
2019-01-24T02:18:54.708Z,55.70
2019-01-24T02:21:26.362Z,60.70
2019-01-24T02:23:57.574Z,59.33
2019-01-24T02:26:28.737Z,53.83
2019-01-24T02:29:00.018Z,51.17
2019-01-24T02:31:31.419Z,54.97
2019-01-24T02:34:02.738Z,56.43
2019-01-24T02:36:33.966Z,54.60
2019-01-24T02:39:07.926Z,59.27
2019-01-24T02:41:39.526Z,50.43
2019-01-24T02:44:10.809Z,55.00
2019-01-24T02:46:42.270Z,58.03
2019-01-24T02:49:13.574Z,61.33
2019-01-24T02:51:44.950Z,54.23
2019-01-24T02:54:15.914Z,52.63
2019-01-24T02:56:54.499Z,58.50
2019-01-24T02:59:26.043Z,58.00
2019-01-24T03:01:57.030Z,55.20
2019-01-24T03:04:28.324Z,58.90
2019-01-24T03:06:59.402Z,58.87
2019-01-24T03:09:30.618Z,61.23
2019-01-24T03:12:01.926Z,59.13
2019-01-24T03:14:33.206Z,60.43
2019-01-24T03:17:04.608Z,55.17
2019-01-24T03:19:35.890Z,62.37
2019-01-24T03:22:07.427Z,57.90
2019-01-24T03:24:38.674Z,52.33
2019-01-24T03:27:09.671Z,63.30
2019-01-24T03:29:40.898Z,58.73
2019-01-24T03:32:12.203Z,55.60
2019-01-24T03:34:43.422Z,56.17
2019-01-24T03:37:14.731Z,55.00
2019-01-24T03:39:46.147Z,60.10
2019-01-24T03:42:18.654Z,57.33
2019-01-24T03:44:50.214Z,57.40
2019-01-24T03:47:21.468Z,55.93
2019-01-24T03:49:52.754Z,58.47
2019-01-24T03:52:23.834Z,58.97
2019-01-24T03:54:55.399Z,57.20
2019-01-24T03:57:27.027Z,75.03
2019-01-24T03:59:58.557Z,58.43
2019-01-24T04:02:30.054Z,64.83
2019-01-24T04:05:01.350Z,61.13
2019-01-24T04:07:34.351Z,62.10
2019-01-24T04:10:07.354Z,61.37
2019-01-24T04:12:38.451Z,58.20
2019-01-24T04:15:11.647Z,61.30
2019-01-24T04:17:43.230Z,65.53
2019-01-24T04:20:14.700Z,52.47
2019-01-24T04:22:46.346Z,57.43
2019-01-24T04:25:17.638Z,62.63
2019-01-24T04:27:48.689Z,53.43
2019-01-24T04:30:21.640Z,55.03
2019-01-24T04:32:53.307Z,61.50
2019-01-24T04:35:24.668Z,56.07
2019-01-24T04:37:56.055Z,60.57
2019-01-24T04:40:27.561Z,58.10
2019-01-24T04:42:58.885Z,56.37
2019-01-24T04:45:30.559Z,73.20
2019-01-24T04:48:01.916Z,59.40
2019-01-24T04:50:32.899Z,62.80
2019-01-24T04:53:05.318Z,61.63
2019-01-24T04:55:36.598Z,55.93
2019-01-24T04:58:07.686Z,59.37
2019-01-24T05:00:38.743Z,67.97
2019-01-24T05:03:09.997Z,59.20
2019-01-24T05:05:42.746Z,57.30
2019-01-24T05:08:13.984Z,57.63
2019-01-24T05:10:45.290Z,65.77
2019-01-24T05:13:16.608Z,57.07
2019-01-24T05:15:49.447Z,56.30
2019-01-24T05:18:20.696Z,61.93
2019-01-24T05:20:51.949Z,62.47
2019-01-24T05:23:23.481Z,60.30
2019-01-24T05:25:54.480Z,64.77
2019-01-24T05:28:25.453Z,54.67
2019-01-24T05:30:57.034Z,67.30
2019-01-24T05:33:28.557Z,62.93
2019-01-24T05:35:59.766Z,65.73
2019-01-24T05:38:30.838Z,67.23
2019-01-24T05:41:02.231Z,61.80
2019-01-24T05:43:33.222Z,58.83
2019-01-24T05:46:04.671Z,60.30
2019-01-24T05:48:35.895Z,63.30
2019-01-24T05:51:07.106Z,65.80
2019-01-24T05:53:38.424Z,62.13
2019-01-24T05:56:09.458Z,63.40
2019-01-24T05:58:40.712Z,63.93
2019-01-24T06:01:12.134Z,64.37
2019-01-24T06:03:43.182Z,59.97
2019-01-24T06:06:14.510Z,61.50
2019-01-24T06:08:45.779Z,57.80
2019-01-24T06:11:17.299Z,60.50
2019-01-24T06:13:48.543Z,65.23
2019-01-24T06:16:19.514Z,60.03
2019-01-24T06:18:50.778Z,67.40
2019-01-24T06:21:22.074Z,59.17
2019-01-24T06:23:53.578Z,60.63
2019-01-24T06:26:24.822Z,56.40
2019-01-24T06:28:55.965Z,69.20
2019-01-24T06:31:27.511Z,56.33
2019-01-24T06:34:02.239Z,61.47
2019-01-24T06:36:34.567Z,66.20
2019-01-24T06:39:10.061Z,58.90
2019-01-24T06:41:41.698Z,65.57
2019-01-24T06:44:13.006Z,66.97
2019-01-24T06:46:44.293Z,58.53
2019-01-24T06:49:15.975Z,63.03
2019-01-24T06:51:47.210Z,54.53
2019-01-24T06:54:18.218Z,58.20
2019-01-24T06:56:49.534Z,61.80
2019-01-24T06:59:20.822Z,61.47
2019-01-24T07:01:52.190Z,59.50
2019-01-24T07:04:23.451Z,56.73
2019-01-24T07:07:00.367Z,58.90
2019-01-24T07:09:31.747Z,61.90
2019-01-24T07:12:03.157Z,60.43
2019-01-24T07:14:34.414Z,67.10
2019-01-24T07:17:05.646Z,60.73
2019-01-24T07:19:37.171Z,66.97
2019-01-24T07:22:08.667Z,58.03
2019-01-24T07:24:39.918Z,66.67
2019-01-24T07:27:10.900Z,51.57
2019-01-24T07:29:42.479Z,65.70
2019-01-24T07:32:13.754Z,57.43
2019-01-24T07:34:44.841Z,65.17
2019-01-24T07:37:15.922Z,65.13
2019-01-24T07:39:48.033Z,61.43
2019-01-24T07:42:19.222Z,65.73
2019-01-24T07:44:50.814Z,55.93
2019-01-24T07:47:22.058Z,60.00
2019-01-24T07:49:53.626Z,59.33
2019-01-24T07:52:24.618Z,64.90
2019-01-24T07:54:56.013Z,62.60
2019-01-24T07:57:27.671Z,62.80
2019-01-24T07:59:59.110Z,61.23
2019-01-24T08:02:30.403Z,61.53
2019-01-24T08:05:02.300Z,60.53
2019-01-24T08:07:34.578Z,59.27
2019-01-24T08:10:08.068Z,60.87
2019-01-24T08:12:39.403Z,58.10
2019-01-24T08:15:12.247Z,68.47
2019-01-24T08:17:43.652Z,60.80
2019-01-24T08:20:20.310Z,63.23
2019-01-24T08:22:52.660Z,58.23
2019-01-24T08:25:24.124Z,61.03
2019-01-24T08:27:58.525Z,59.17
2019-01-24T08:30:31.779Z,61.47
2019-01-24T08:33:03.363Z,55.80
2019-01-24T08:35:34.458Z,62.03
2019-01-24T08:38:06.219Z,54.80
2019-01-24T08:40:38.361Z,61.47
2019-01-24T08:43:13.674Z,58.53
2019-01-24T08:45:45.003Z,62.37
2019-01-24T08:48:16.363Z,59.50
2019-01-24T08:50:47.743Z,81.80
2019-01-24T08:53:19.091Z,104.27
2019-01-24T08:55:50.686Z,66.63
2019-01-24T08:58:22.037Z,76.83
2019-01-24T09:00:53.570Z,71.70
2019-01-24T09:03:24.850Z,94.33
2019-01-24T09:05:56.167Z,95.33
2019-01-24T09:08:27.530Z,79.73
2019-01-24T09:10:59.170Z,85.80
2019-01-24T09:13:30.423Z,80.53
2019-01-24T09:16:01.623Z,70.10
2019-01-24T09:18:32.933Z,54.50
2019-01-24T09:21:04.347Z,56.57
2019-01-24T09:23:35.722Z,61.83
2019-01-24T09:26:06.798Z,64.57
2019-01-24T09:28:38.566Z,72.93
2019-01-24T09:31:09.658Z,64.23
2019-01-24T09:33:40.882Z,58.97
2019-01-24T09:36:12.125Z,59.57
2019-01-24T09:38:43.450Z,70.40
2019-01-24T09:41:14.817Z,53.33
2019-01-24T09:43:46.258Z,54.97
2019-01-24T09:46:18.021Z,59.20
2019-01-24T09:48:49.226Z,57.80
2019-01-24T09:51:20.458Z,65.23
2019-01-24T09:53:51.788Z,63.53
2019-01-24T09:56:23.119Z,59.33
2019-01-24T09:58:54.418Z,53.50
2019-01-24T10:01:25.767Z,58.60
2019-01-24T10:03:57.060Z,60.10
2019-01-24T10:06:28.303Z,55.23
2019-01-24T10:09:00.174Z,65.93
2019-01-24T10:11:31.435Z,60.40
2019-01-24T10:14:03.906Z,61.90
2019-01-24T10:16:36.086Z,55.33
2019-01-24T10:19:07.567Z,58.87
2019-01-24T10:21:39.101Z,58.53
2019-01-24T10:24:10.726Z,64.17
2019-01-24T10:26:42.127Z,57.53
2019-01-24T10:29:13.630Z,61.93
2019-01-24T10:31:46.401Z,60.93
2019-01-24T10:34:17.847Z,59.10
2019-01-24T10:36:48.843Z,57.83
2019-01-24T10:39:19.914Z,63.33
2019-01-24T10:41:51.370Z,57.10
2019-01-24T10:44:23.070Z,52.50
2019-01-24T10:46:54.140Z,60.20
2019-01-24T10:49:25.366Z,52.30
2019-01-24T10:51:56.676Z,64.50
2019-01-24T10:54:27.893Z,59.23
2019-01-24T10:56:59.140Z,57.87
2019-01-24T10:59:31.085Z,58.57
2019-01-24T11:02:02.975Z,71.20
2019-01-24T11:04:34.282Z,51.50
2019-01-24T11:07:05.688Z,58.50
2019-01-24T11:09:36.938Z,60.50
2019-01-24T11:12:08.078Z,53.77
2019-01-24T11:14:39.430Z,66.57
2019-01-24T11:17:10.694Z,57.00
2019-01-24T11:19:41.730Z,73.90
2019-01-24T11:22:13.040Z,54.77
2019-01-24T11:24:44.341Z,52.40
2019-01-24T11:27:15.831Z,60.37
2019-01-24T11:29:47.386Z,57.67
2019-01-24T11:32:19.682Z,49.90
2019-01-24T11:34:50.730Z,54.30
2019-01-24T11:37:22.324Z,52.47
2019-01-24T11:39:53.875Z,55.70
2019-01-24T11:42:24.870Z,60.40
2019-01-24T11:44:56.846Z,52.83
2019-01-24T11:47:28.165Z,54.30
2019-01-24T11:49:59.166Z,55.27
2019-01-24T11:52:30.471Z,54.70
2019-01-24T11:55:01.518Z,65.73
2019-01-24T11:57:32.759Z,57.80
2019-01-24T12:00:05.607Z,56.07
2019-01-24T12:02:39.822Z,60.03
2019-01-24T12:05:10.375Z,57.93
2019-01-24T12:07:41.560Z,61.83
2019-01-24T12:10:15.704Z,65.07
2019-01-24T12:12:47.299Z,53.63
2019-01-24T12:15:19.996Z,60.17
2019-01-24T12:17:51.150Z,62.97
2019-01-24T12:20:23.515Z,54.63
2019-01-24T12:22:54.643Z,58.30
2019-01-24T12:25:26.119Z,57.83
2019-01-24T12:27:58.522Z,57.60
2019-01-24T12:30:31.786Z,54.80
2019-01-24T12:33:03.401Z,52.63
2019-01-24T12:35:34.873Z,59.73
2019-01-24T12:38:06.190Z,52.27
2019-01-24T12:40:37.647Z,64.50
2019-01-24T12:43:09.124Z,58.50
2019-01-24T12:45:40.626Z,56.40
2019-01-24T12:48:11.622Z,58.77
2019-01-24T12:50:42.936Z,61.43
2019-01-24T12:53:14.275Z,54.63
2019-01-24T12:55:45.400Z,50.83
2019-01-24T12:58:16.738Z,58.70
2019-01-24T13:00:48.127Z,58.63
2019-01-24T13:03:19.262Z,59.07
2019-01-24T13:05:50.415Z,50.73
2019-01-24T13:08:21.679Z,51.07
2019-01-24T13:10:52.911Z,55.93
2019-01-24T13:13:24.168Z,54.90
2019-01-24T13:15:55.464Z,56.67
2019-01-24T13:18:27.123Z,56.93
2019-01-24T13:21:00.102Z,58.87
2019-01-24T13:23:33.084Z,48.80
2019-01-24T13:26:04.366Z,50.80
2019-01-24T13:28:35.382Z,59.60
2019-01-24T13:31:06.687Z,50.10
2019-01-24T13:33:37.914Z,61.90
2019-01-24T13:36:09.066Z,55.10
2019-01-24T13:38:40.090Z,51.33
2019-01-24T13:41:11.423Z,55.43
2019-01-24T13:43:43.683Z,49.37
2019-01-24T13:46:15.040Z,52.87
2019-01-24T13:48:46.619Z,54.87
2019-01-24T13:51:19.538Z,54.23
2019-01-24T13:53:50.550Z,47.90
2019-01-24T13:56:21.859Z,58.80
2019-01-24T13:58:53.214Z,48.73
2019-01-24T14:01:24.538Z,48.60
2019-01-24T14:04:17.818Z,52.50
2019-01-24T14:06:49.290Z,47.07
2019-01-24T14:09:20.617Z,53.20
2019-01-24T14:11:53.071Z,53.57
2019-01-24T14:14:24.184Z,53.30
2019-01-24T14:16:55.566Z,54.77
2019-01-24T14:19:26.899Z,52.27
2019-01-24T14:21:58.152Z,53.97
2019-01-24T14:24:29.506Z,60.00
2019-01-24T14:27:01.665Z,53.37
2019-01-24T14:29:33.051Z,52.80
2019-01-24T14:32:05.837Z,58.17
2019-01-24T14:34:36.867Z,54.67
2019-01-24T14:37:08.983Z,55.90
2019-01-24T14:39:40.378Z,56.53
2019-01-24T14:42:11.674Z,58.90
2019-01-24T14:44:42.731Z,50.07
2019-01-24T14:47:13.814Z,52.40
2019-01-24T14:49:45.162Z,50.77
2019-01-24T14:52:16.587Z,61.57
2019-01-24T14:54:47.912Z,55.73
2019-01-24T14:57:19.247Z,53.33
2019-01-24T14:59:50.726Z,58.37
2019-01-24T15:02:21.778Z,59.53
2019-01-24T15:04:53.100Z,58.57
2019-01-24T15:07:24.086Z,66.60
2019-01-24T15:09:55.416Z,58.37
2019-01-24T15:12:27.075Z,56.13
2019-01-24T15:14:58.250Z,51.53
2019-01-24T15:17:29.584Z,58.97
2019-01-24T15:20:01.179Z,58.70
2019-01-24T15:22:32.571Z,63.73
2019-01-24T15:25:04.227Z,61.10
2019-01-24T15:27:35.645Z,63.40
2019-01-24T15:30:09.347Z,58.10
2019-01-24T15:32:40.811Z,57.57
2019-01-24T15:35:12.271Z,55.00
2019-01-24T15:37:43.970Z,58.47
2019-01-24T15:40:23.209Z,60.57
2019-01-24T15:42:54.646Z,63.77
2019-01-24T15:45:26.100Z,56.30
2019-01-24T15:47:57.826Z,67.93
2019-01-24T15:50:29.226Z,71.20
2019-01-24T15:53:00.555Z,59.00
2019-01-24T15:55:32.313Z,56.97
2019-01-24T15:58:03.687Z,57.23
2019-01-24T16:00:35.329Z,64.10
2019-01-24T16:03:07.143Z,64.00
2019-01-24T16:05:38.791Z,60.03
2019-01-24T16:08:10.155Z,68.17
2019-01-24T16:10:41.589Z,61.13
2019-01-24T16:13:12.922Z,60.80
2019-01-24T16:15:44.282Z,68.50
2019-01-24T16:18:16.520Z,61.83
2019-01-24T16:20:48.110Z,54.53
2019-01-24T16:23:19.362Z,62.90
2019-01-24T16:25:50.803Z,61.50
2019-01-24T16:28:24.773Z,61.03
2019-01-24T16:30:56.671Z,69.00
2019-01-24T16:33:28.391Z,61.73
2019-01-24T16:35:59.714Z,61.03
2019-01-24T16:38:30.827Z,61.63
2019-01-24T16:41:01.878Z,68.33
2019-01-24T16:43:34.417Z,62.33
2019-01-24T16:46:06.110Z,59.27
2019-01-24T16:48:37.621Z,60.77
2019-01-24T16:51:08.750Z,67.83
2019-01-24T16:53:40.867Z,60.30
2019-01-24T16:56:12.272Z,64.77
2019-01-24T16:58:43.595Z,60.93
2019-01-24T17:01:18.248Z,65.73
2019-01-24T17:03:49.626Z,64.17
2019-01-24T17:06:21.102Z,67.83
2019-01-24T17:08:55.222Z,61.53
2019-01-24T17:11:26.981Z,122.23
2019-01-24T17:13:58.139Z,73.83
2019-01-24T17:16:29.905Z,71.30
2019-01-24T17:19:01.383Z,66.57
2019-01-24T17:21:33.354Z,63.93
2019-01-24T17:24:06.224Z,66.43
2019-01-24T17:26:38.529Z,66.53
2019-01-24T17:29:09.835Z,64.07
2019-01-24T17:31:41.455Z,68.70
2019-01-24T17:34:15.652Z,59.87
2019-01-24T17:36:47.154Z,66.80
2019-01-24T17:39:18.298Z,58.27
2019-01-24T17:41:50.050Z,65.03
2019-01-24T17:44:22.910Z,60.93
2019-01-24T17:46:54.150Z,67.67
2019-01-24T17:49:25.635Z,68.20
2019-01-24T17:51:57.336Z,73.80
2019-01-24T17:54:29.052Z,73.30
2019-01-24T17:57:02.263Z,65.50
2019-01-24T17:59:33.883Z,65.30
2019-01-24T18:02:14.274Z,65.30
2019-01-24T18:04:48.172Z,65.23
2019-01-24T18:07:22.176Z,65.00
2019-01-24T18:09:53.903Z,57.10
2019-01-24T18:12:25.390Z,64.33
2019-01-24T18:14:57.003Z,76.30
2019-01-24T18:17:30.699Z,65.10
2019-01-24T18:20:03.465Z,65.53
2019-01-24T18:22:37.263Z,66.93
2019-01-24T18:25:08.664Z,65.50
2019-01-24T18:27:39.784Z,67.67
2019-01-24T18:30:17.879Z,70.03
2019-01-24T18:32:52.782Z,67.27
2019-01-24T18:35:24.522Z,71.33
2019-01-24T18:37:55.798Z,66.87
2019-01-24T18:40:28.011Z,67.27
2019-01-24T18:43:01.186Z,61.57
2019-01-24T18:45:36.812Z,70.17
2019-01-24T18:48:08.694Z,80.87
2019-01-24T18:50:40.189Z,74.37
2019-01-24T18:53:13.122Z,74.87
2019-01-24T18:55:44.573Z,66.53
2019-01-24T18:58:16.356Z,68.70
2019-01-24T19:00:48.572Z,68.77
2019-01-24T19:03:20.366Z,65.43
2019-01-24T19:05:53.182Z,78.30
2019-01-24T19:08:25.527Z,72.07
2019-01-24T19:10:57.315Z,73.70
2019-01-24T19:13:29.936Z,68.17
2019-01-24T19:16:04.751Z,69.67
2019-01-24T19:18:36.233Z,70.87
2019-01-24T19:21:08.046Z,62.47
2019-01-24T19:23:40.192Z,71.57
2019-01-24T19:26:14.344Z,63.97
2019-01-24T19:28:49.177Z,77.07
2019-01-24T19:31:24.896Z,99.80
2019-01-24T19:33:56.438Z,79.27
2019-01-24T19:36:28.124Z,67.10
2019-01-24T19:38:59.528Z,69.63
2019-01-24T19:41:31.670Z,64.40
2019-01-24T19:44:03.479Z,76.47
2019-01-24T19:46:34.833Z,72.43
2019-01-24T19:49:07.591Z,84.00
2019-01-24T19:51:39.179Z,114.47
2019-01-24T19:54:10.427Z,72.03
2019-01-24T19:56:42.000Z,81.63
2019-01-24T19:59:13.931Z,69.23
2019-01-24T20:01:45.726Z,73.87
2019-01-24T20:04:18.690Z,83.70
2019-01-24T20:06:49.770Z,75.80
2019-01-24T20:09:22.043Z,75.63
2019-01-24T20:11:53.418Z,81.13
2019-01-24T20:14:24.731Z,72.23
2019-01-24T20:16:55.851Z,72.63
2019-01-24T20:19:27.091Z,73.00
2019-01-24T20:21:58.947Z,66.40
2019-01-24T20:24:30.464Z,79.27
2019-01-24T20:27:01.583Z,74.20
2019-01-24T20:29:33.348Z,76.37
2019-01-24T20:32:04.676Z,65.33
2019-01-24T20:34:35.825Z,77.50
2019-01-24T20:37:07.445Z,77.03
2019-01-24T20:39:39.032Z,76.33
2019-01-24T20:42:10.631Z,75.37
2019-01-24T20:44:42.024Z,81.27
2019-01-24T20:47:13.625Z,76.50
2019-01-24T20:49:45.214Z,77.37
2019-01-24T20:52:16.981Z,79.37
2019-01-24T20:54:48.567Z,78.73
2019-01-24T20:57:20.284Z,75.37
2019-01-24T20:59:52.357Z,84.47
2019-01-24T21:02:23.917Z,80.00
2019-01-24T21:04:55.588Z,76.70
2019-01-24T21:07:27.123Z,87.33
2019-01-24T21:09:58.952Z,88.70
2019-01-24T21:12:30.533Z,87.70
2019-01-24T21:15:02.093Z,84.33
2019-01-24T21:17:33.689Z,88.23
2019-01-24T21:20:05.620Z,80.43
2019-01-24T21:22:36.789Z,77.67
2019-01-24T21:25:10.495Z,98.50
2019-01-24T21:27:42.098Z,87.37
2019-01-24T21:30:19.211Z,87.20
2019-01-24T21:32:50.527Z,82.97
2019-01-24T21:35:21.816Z,87.80
2019-01-24T21:37:53.427Z,78.77
2019-01-24T21:40:25.213Z,82.87
2019-01-24T21:42:56.769Z,84.27
2019-01-24T21:45:30.373Z,88.87
2019-01-24T21:48:02.026Z,86.17
2019-01-24T21:50:34.009Z,88.30
2019-01-24T21:53:06.163Z,78.17
2019-01-24T21:55:37.936Z,90.20
2019-01-24T21:58:09.616Z,83.50
2019-01-24T22:00:40.861Z,85.83
2019-01-24T22:03:12.310Z,98.03
2019-01-24T22:05:44.276Z,80.73
2019-01-24T22:08:15.847Z,87.73
2019-01-24T22:10:47.358Z,87.40
2019-01-24T22:13:20.024Z,92.63
2019-01-24T22:15:51.584Z,82.97
2019-01-24T22:18:23.242Z,95.20
2019-01-24T22:20:55.663Z,82.93
2019-01-24T22:23:27.597Z,92.47
2019-01-24T22:25:58.956Z,91.70
2019-01-24T22:28:30.776Z,87.27
2019-01-24T22:31:02.186Z,88.63
2019-01-24T22:33:33.897Z,86.83
2019-01-24T22:36:05.582Z,85.67
2019-01-24T22:38:37.856Z,83.97
2019-01-24T22:41:15.504Z,84.30
2019-01-24T22:43:47.022Z,82.73
2019-01-24T22:46:18.737Z,87.43
2019-01-24T22:48:50.288Z,78.27
2019-01-24T22:51:22.068Z,83.57
2019-01-24T22:53:54.529Z,89.47
2019-01-24T22:56:27.275Z,82.00
2019-01-24T22:58:59.079Z,89.90
2019-01-24T23:01:39.656Z,94.27
2019-01-24T23:04:16.869Z,88.90
2019-01-24T23:06:50.542Z,88.90
2019-01-24T23:09:23.713Z,85.23
2019-01-24T23:11:55.576Z,87.97
2019-01-24T23:14:27.448Z,82.10
2019-01-24T23:16:58.764Z,88.27
2019-01-24T23:19:30.391Z,89.57
2019-01-24T23:22:02.097Z,83.87
2019-01-24T23:24:33.756Z,85.57
2019-01-24T23:27:05.490Z,90.10
2019-01-24T23:29:36.649Z,82.23
2019-01-24T23:32:08.219Z,90.17
2019-01-24T23:34:39.351Z,84.30
2019-01-24T23:37:10.932Z,81.63
2019-01-24T23:39:42.468Z,90.40
2019-01-24T23:42:14.025Z,87.47
2019-01-24T23:44:45.337Z,85.87
2019-01-24T23:47:16.685Z,79.80
2019-01-24T23:49:48.276Z,90.47
2019-01-24T23:52:20.348Z,79.57
2019-01-24T23:54:53.330Z,85.53
2019-01-24T23:57:24.480Z,85.73
2019-01-24T23:59:56.007Z,86.00
